M/V Polaris Melody — 3FHJ9 — position and weather

sailwx.info

Track history (hours):
 
Tides and Currents Weather Stations Pressure Air Temp Water Temp Dewpoint Dewpoint Depression Visibility Wind Speed Wind Dir Waves Ship Positions

M/V Polaris Melody

Last reported at 2018-Jan-20 05:27 UTC. Time now 2018-Jan-20 05:34 UTC.
Position N 31°42' E 121°09'.

Length 180 m; draft 10.8 m.

Type: Cargo ship. MMSI: 370734000.

Date/timePositionNaut miles runAvg speedWind from/ knotsBaromVisibWave heightAir tempDewpointWater temp
2018-Jan-20 05:27N 31°42' E 121°09'0 0.0
2018-Jan-20 04:51N 31°42' E 121°09'0 0.0
2018-Jan-20 04:24N 31°42' E 121°09'0 0.0
2018-Jan-19 23:09N 31°42' E 121°09'0 0.0
2018-Jan-19 22:45N 31°42' E 121°09'0 0.0
2018-Jan-19 22:09N 31°42' E 121°09'0 0.0
2018-Jan-19 21:57N 31°42' E 121°09'0 0.0
2018-Jan-19 21:27N 31°42' E 121°09'0 0.0
2018-Jan-19 20:51N 31°42' E 121°09'0 0.0
2018-Jan-19 20:03N 31°42' E 121°09'0 0.0
2018-Jan-19 19:54N 31°42' E 121°09'0 0.0
2018-Jan-19 19:03N 31°42' E 121°09'0 0.0
2018-Jan-19 18:57N 31°42' E 121°09'0 0.0
2018-Jan-19 16:21N 31°42' E 121°09'0 0.0
2018-Jan-19 15:39N 31°42' E 121°09'0 0.0
2018-Jan-19 15:18N 31°42' E 121°09'0 0.0
2018-Jan-19 14:48N 31°42' E 121°09'0 0.0
2018-Jan-19 14:27N 31°42' E 121°09'0 0.0
2018-Jan-19 13:57N 31°42' E 121°09'0 0.0
2018-Jan-19 13:30N 31°42' E 121°09'0 0.0
2018-Jan-19 12:49N 31°42' E 121°09'0 0.8
2018-Jan-19 12:29N 31°42' E 121°09'4 7.7
2018-Jan-19 12:00N 31°40' E 121°13'4 8.4
2018-Jan-19 11:30N 31°37' E 121°16'4 7.0
2018-Jan-19 11:00N 31°35' E 121°20'0 0.3
2018-Jan-19 10:27N 31°35' E 121°20'0 0.1
2018-Jan-19 09:57N 31°35' E 121°20'0 0.2
2018-Jan-19 09:19N 31°35' E 121°20'0 0.3
2018-Jan-19 09:00N 31°35' E 121°20'0 0.1
2018-Jan-19 08:30N 31°35' E 121°20'0 0.0
2018-Jan-19 07:57N 31°35' E 121°20'0 0.0
2018-Jan-19 07:27N 31°35' E 121°20'0 0.0
2018-Jan-19 06:57N 31°35' E 121°20'0 0.0
2018-Jan-19 06:27N 31°35' E 121°20'0 0.0
2018-Jan-19 06:00N 31°35' E 121°20'0 0.0
2018-Jan-19 05:30N 31°35' E 121°20'0 0.1
2018-Jan-19 04:57N 31°35' E 121°20'0 0.1
2018-Jan-19 04:30N 31°35' E 121°20'0 0.2
2018-Jan-19 04:00N 31°35' E 121°20'0 0.4
2018-Jan-19 03:30N 31°35' E 121°20'0 0.9
2018-Jan-19 03:00N 31°34' E 121°20'3 5.9
2018-Jan-19 02:30N 31°32' E 121°22'4 8.5
2018-Jan-19 02:00N 31°30' E 121°26'2 4.8
2018-Jan-19 01:30N 31°28' E 121°28'3 5.8
2018-Jan-19 01:00N 31°26' E 121°30'2 4.4
2018-Jan-19 00:30N 31°25' E 121°32'12 5.6
2018-Jan-18 22:24N 31°19' E 121°44'2 6.1
2018-Jan-18 22:00N 31°18' E 121°47'5 7.5
2018-Jan-18 21:17N 31°16' E 121°53'2 7.4
2018-Jan-18 21:00N 31°16' E 121°55'4 7.8
2018-Jan-18 20:29N 31°15' E 121°60'3 6.9
2018-Jan-18 20:00N 31°14' E 122°04'3 5.7
2018-Jan-18 19:30N 31°13' E 122°07'4 7.0
2018-Jan-18 18:59N 31°11' E 122°10'4 7.3
2018-Jan-18 18:30N 31°09' E 122°14'2 3.7
2018-Jan-18 18:00N 31°08' E 122°15'2 3.9
2018-Jan-18 17:30N 31°07' E 122°17'3 5.4
2018-Jan-18 17:00N 31°06' E 122°20'3 5.5
2018-Jan-18 16:30N 31°06' E 122°23'2 4.2
2018-Jan-18 16:00N 31°07' E 122°26'  
Track history (hours):
 
Tides and Currents Weather Stations Pressure Air Temp Water Temp Dewpoint Dewpoint Depression Visibility Wind Speed Wind Dir Waves Ship Positions

M/V Polaris Melody

Last reported at 2018-Jan-20 05:27 UTC. Time now 2018-Jan-20 05:34 UTC.
Position N 31°42' E 121°09'.

Length 180 m; draft 10.8 m.

Type: Cargo ship. MMSI: 370734000.

Date/timePositionNaut miles runAvg speedWind from/ knotsBaromVisibWave heightAir tempDewpointWater temp
2018-Jan-20 05:27N 31°42' E 121°09'0 0.0
2018-Jan-20 04:51N 31°42' E 121°09'0 0.0
2018-Jan-20 04:24N 31°42' E 121°09'0 0.0
2018-Jan-19 23:09N 31°42' E 121°09'0 0.0
2018-Jan-19 22:45N 31°42' E 121°09'0 0.0
2018-Jan-19 22:09N 31°42' E 121°09'0 0.0
2018-Jan-19 21:57N 31°42' E 121°09'0 0.0
2018-Jan-19 21:27N 31°42' E 121°09'0 0.0
2018-Jan-19 20:51N 31°42' E 121°09'0 0.0
2018-Jan-19 20:03N 31°42' E 121°09'0 0.0
2018-Jan-19 19:54N 31°42' E 121°09'0 0.0
2018-Jan-19 19:03N 31°42' E 121°09'0 0.0
2018-Jan-19 18:57N 31°42' E 121°09'0 0.0
2018-Jan-19 16:21N 31°42' E 121°09'0 0.0
2018-Jan-19 15:39N 31°42' E 121°09'0 0.0
2018-Jan-19 15:18N 31°42' E 121°09'0 0.0
2018-Jan-19 14:48N 31°42' E 121°09'0 0.0
2018-Jan-19 14:27N 31°42' E 121°09'0 0.0
2018-Jan-19 13:57N 31°42' E 121°09'0 0.0
2018-Jan-19 13:30N 31°42' E 121°09'0 0.0
2018-Jan-19 12:49N 31°42' E 121°09'0 0.8
2018-Jan-19 12:29N 31°42' E 121°09'4 7.7
2018-Jan-19 12:00N 31°40' E 121°13'4 8.4
2018-Jan-19 11:30N 31°37' E 121°16'4 7.0
2018-Jan-19 11:00N 31°35' E 121°20'0 0.3
2018-Jan-19 10:27N 31°35' E 121°20'0 0.1
2018-Jan-19 09:57N 31°35' E 121°20'0 0.2
2018-Jan-19 09:19N 31°35' E 121°20'0 0.3
2018-Jan-19 09:00N 31°35' E 121°20'0 0.1
2018-Jan-19 08:30N 31°35' E 121°20'0 0.0
2018-Jan-19 07:57N 31°35' E 121°20'0 0.0
2018-Jan-19 07:27N 31°35' E 121°20'0 0.0
2018-Jan-19 06:57N 31°35' E 121°20'0 0.0
2018-Jan-19 06:27N 31°35' E 121°20'0 0.0
2018-Jan-19 06:00N 31°35' E 121°20'0 0.0
2018-Jan-19 05:30N 31°35' E 121°20'0 0.1
2018-Jan-19 04:57N 31°35' E 121°20'0 0.1
2018-Jan-19 04:30N 31°35' E 121°20'0 0.2
2018-Jan-19 04:00N 31°35' E 121°20'0 0.4
2018-Jan-19 03:30N 31°35' E 121°20'0 0.9
2018-Jan-19 03:00N 31°34' E 121°20'3 5.9
2018-Jan-19 02:30N 31°32' E 121°22'4 8.5
2018-Jan-19 02:00N 31°30' E 121°26'2 4.8
2018-Jan-19 01:30N 31°28' E 121°28'3 5.8
2018-Jan-19 01:00N 31°26' E 121°30'2 4.4
2018-Jan-19 00:30N 31°25' E 121°32'12 5.6
2018-Jan-18 22:24N 31°19' E 121°44'2 6.1
2018-Jan-18 22:00N 31°18' E 121°47'5 7.5
2018-Jan-18 21:17N 31°16' E 121°53'2 7.4
2018-Jan-18 21:00N 31°16' E 121°55'4 7.8
2018-Jan-18 20:29N 31°15' E 121°60'3 6.9
2018-Jan-18 20:00N 31°14' E 122°04'3 5.7
2018-Jan-18 19:30N 31°13' E 122°07'4 7.0
2018-Jan-18 18:59N 31°11' E 122°10'4 7.3
2018-Jan-18 18:30N 31°09' E 122°14'2 3.7
2018-Jan-18 18:00N 31°08' E 122°15'2 3.9
2018-Jan-18 17:30N 31°07' E 122°17'3 5.4
2018-Jan-18 17:00N 31°06' E 122°20'3 5.5
2018-Jan-18 16:30N 31°06' E 122°23'2 4.2
2018-Jan-18 16:00N 31°07' E 122°26'  

Dump ship's entire track history